• Join FlightAware (Why Join?)
  • Login
  • US Flag 
11:29PM EDT


 

Airport Tracker/Info


-or-


 

Live Flight TrackerFlight Track Log ✈ SWA1496 ✈ 28-Sep-2013 ✈ KDEN - KONT

Flight Track Log - Related Links

Times and Time Zones

All times are in EDT time to prevent confusion due to time zone crossing. See the SWA1496 flight status page for this flight to view local times or setup timezone preferences in your user account.

Time Position Orientation Groundspeed Altitude Reporting Facility
EDT Latitude Longitude Course Direction KTS MPH feet Rate Location/Type
10:26PM 39.8167 -104.8500 258° West 279 321 9,500  Level Denver TRACON
10:27PM 39.7942 -104.9253 249° West 286 329 12,000 3,420 Climbing Denver Center
10:28PM 39.7631 -105.0389 250° West 331 381 15,700 3,240 Climbing Denver Center
10:29PM 39.7225 -105.1497 245° Southwest 342 394 18,600 2,940 Climbing Denver Center
10:30PM 39.6792 -105.2700 245° Southwest 367 422 21,700 2,700 Climbing Denver Center
10:31PM 39.6308 -105.4039 245° Southwest 381 438 24,200 2,100 Climbing Denver Center
10:32PM 39.5878 -105.5217 245° Southwest 403 464 26,000 1,080 Climbing Denver Center
10:33PM 39.5408 -105.6544 245° Southwest 406 467 26,400 1,320 Climbing Denver Center
10:34PM 39.4942 -105.7889 246° West 411 473 28,800 1,740 Climbing Denver Center
10:35PM 39.4464 -105.9261 246° West 419 482 30,000 2,220 Climbing Denver Center
10:36PM 39.3789 -106.0997 243° Southwest 449 517 33,300 2,340 Climbing Denver Center
10:37PM 39.3375 -106.2161 245° Southwest 419 482 34,800 1,320 Climbing Denver Center
10:38PM 39.2769 -106.3744 244° Southwest 433 498 36,000 1,020 Climbing Denver Center
10:39PM 39.2233 -106.5142 244° Southwest 450 518 36,900 1,020 Climbing Denver Center
10:40PM 39.1694 -106.6572 244° Southwest 462 532 38,100 1,500 Climbing Denver Center
10:41PM 39.1058 -106.8203 243° Southwest 458 527 40,000 900 Climbing Denver Center
10:42PM 39.0542 -106.9564 244° Southwest 448 516 40,000  Level Denver Center
10:43PM 39.0011 -107.0925 243° Southwest 444 511 40,000  Level Denver Center
10:44PM 38.9411 -107.2494 244° Southwest 439 505 40,000  Level Denver Center
10:45PM 38.8883 -107.3831 243° Southwest 439 505 40,000  Level Denver Center
10:46PM 38.8381 -107.5156 244° Southwest 433 498 40,000  Level Denver Center
10:47PM 38.7772 -107.6714 243° Southwest 436 502 40,000  Level Denver Center
10:48PM 38.7236 -107.8050 243° Southwest 438 504 40,000  Level Denver Center
10:49PM 38.6717 -107.9375 243° Southwest 435 501 40,000  Level Denver Center
10:50PM 38.6100 -108.0928 243° Southwest 437 503 40,000  Level Denver Center
10:51PM 38.5558 -108.2264 243° Southwest 439 505 40,000  Level Denver Center
10:52PM 38.5025 -108.3619 243° Southwest 443 510 40,000  Level Denver Center
10:53PM 38.4394 -108.5175 243° Southwest 442 509 40,000  Level Denver Center
10:54PM 38.3853 -108.6519 243° Southwest 441 507 40,000  Level Denver Center
10:55PM 38.3311 -108.7858 243° Southwest 444 511 40,000  Level Denver Center
10:56PM 38.2675 -108.9406 242° Southwest 441 507 40,000  Level Denver Center
10:57PM 38.2131 -109.0714 242° Southwest 440 506 40,000  Level Denver Center
10:58PM 38.1583 -109.2031 242° Southwest 439 505 40,000  Level Denver Center
10:59PM 38.0942 -109.3564 242° Southwest 440 506 40,000  Level Denver Center
11:00PM 38.0394 -109.4892 242° Southwest 443 510 40,000  Level Denver Center
11:01PM 37.9794 -109.6328 242° Southwest 444 511 40,000  Level Denver Center
11:02PM 37.9236 -109.7661 242° Southwest 448 516 40,000  Level Denver Center
11:03PM 37.8681 -109.8972 242° Southwest 444 511 40,000  Level Denver Center
11:04PM 37.8031 -110.0519 242° Southwest 445 512 40,000  Level Denver Center
11:05PM 37.7469 -110.1833 242° Southwest 445 512 40,000  Level Denver Center
11:06PM 37.6917 -110.3131 242° Southwest 440 506 40,000  Level Denver Center
11:07PM 37.6253 -110.4650 241° Southwest 442 509 40,000  Level Denver Center
11:08PM 37.5622 -110.6125 242° Southwest 440 506 40,000  Level Denver Center
11:09PM 37.5042 -110.7469 241° Southwest 439 505 40,000  Level Denver Center
11:10PM 37.4450 -110.8825 241° Southwest 441 507 40,000  Level Denver Center
11:11PM 37.3869 -111.0172 242° Southwest 438 504 40,000  Level Denver Center
11:12PM 37.3275 -111.1500 241° Southwest 436 502 40,000  Level Denver Center
11:13PM 37.2697 -111.2847 242° Southwest 437 503 40,000  Level Denver Center
11:14PM 37.2100 -111.4172 241° Southwest 436 502 40,000  Level Denver Center
11:15PM 37.1517 -111.5489 241° Southwest 433 498 40,000  Level Denver Center
11:16PM 37.1147 -111.6292 240° Southwest 433 498 40,000  Level Los Angeles Center
11:17PM 37.0569 -111.7608 241° Southwest 432 497 40,000  Level Los Angeles Center
11:18PM 36.9972 -111.8936 241° Southwest 435 501 40,000  Level Los Angeles Center
11:19PM 36.9381 -112.0250 241° Southwest 434 499 40,000  Level Los Angeles Center
11:20PM 36.8783 -112.1561 240° Southwest 434 499 40,000  Level Los Angeles Center
11:21PM 36.8189 -112.2881 241° Southwest 435 501 40,000  Level Los Angeles Center
11:22PM 36.7589 -112.4181 240° Southwest 433 498 40,000  Level Los Angeles Center
11:23PM 36.6997 -112.5494 241° Southwest 433 498 40,000  Level Los Angeles Center
11:24PM 36.6269 -112.7067 240° Southwest 436 502 40,000  Level Los Angeles Center
11:25PM 36.5664 -112.8381 240° Southwest 436 502 40,000  Level Los Angeles Center
11:26PM 36.5056 -112.9689 240° Southwest 437 503 40,000  Level Los Angeles Center
11:27PM 36.4456 -113.0983 240° Southwest 434 499 40,000  Level Los Angeles Center
11:28PM 36.3847 -113.2281 240° Southwest 435 501 40,000  Level Los Angeles Center
11:29PM 36.3206 -113.3658 240° Southwest 431 496 40,000  Level Los Angeles Center
11:30PM 36.2597 -113.4922 239° Southwest 428 493 40,000  Level Los Angeles Center
11:31PM 36.2014 -113.6183 240° Southwest 424 488 40,000  Level Los Angeles Center
11:32PM 36.1414 -113.7442 239° Southwest 424 488 40,000  Level Los Angeles Center
11:33PM 36.0822 -113.8681 239° Southwest 420 483 40,000  Level Los Angeles Center
11:34PM 36.0217 -113.9931 239° Southwest 421 484 40,000  Level Los Angeles Center
11:35PM 35.9619 -114.1175 239° Southwest 422 486 40,000  Level Los Angeles Center
11:36PM 35.9011 -114.2417 239° Southwest 422 486 40,000  Level Los Angeles Center
11:37PM 35.8433 -114.3672 240° Southwest 421 484 40,000  Level Los Angeles Center
11:38PM 35.7817 -114.4914 239° Southwest 423 487 40,000  Level Los Angeles Center
11:39PM 35.7142 -114.6100 235° Southwest 422 486 40,000  Level Los Angeles Center
11:40PM 35.6481 -114.7289 236° Southwest 422 486 40,000  Level Los Angeles Center
11:41PM 35.5814 -114.8461 235° Southwest 419 482 40,000  Level Los Angeles Center
11:42PM 35.5164 -114.9628 236° Southwest 415 478 40,000  Level Los Angeles Center
11:43PM 35.4519 -115.0789 236° Southwest 411 473 40,000  Level Los Angeles Center
11:44PM 35.3853 -115.1936 235° Southwest 412 474 40,000  Level Los Angeles Center
11:45PM 35.3075 -115.3317 235° Southwest 409 471 40,000  Level Los Angeles Center
11:46PM 35.2428 -115.4444 235° Southwest 405 466 40,000  Level Los Angeles Center
11:47PM 35.1894 -115.5386 235° Southwest 406 467 40,000  Level Los Angeles Center
11:48PM 35.1239 -115.6514 235° Southwest 407 468 40,000 -1,140 Level Los Angeles Center
11:49PM 35.0475 -115.7844 235° Southwest 401 461 37,800 -2,160 Descending Los Angeles Center
11:51PM 34.9847 -115.8942 235° Southwest 397 457 35,200 -2,460 Descending Los Angeles Center
11:52PM 34.9008 -116.0378 235° Southwest 426 490 32,400 -2,460 Descending Los Angeles Center
11:53PM 34.8333 -116.1528 234° Southwest 421 484 30,200 -2,160 Descending Los Angeles Center
11:54PM 34.7675 -116.2656 235° Southwest 412 474 28,100 -2,100 Descending Los Angeles Center
11:55PM 34.7031 -116.3733 234° Southwest 399 459 26,000 -2,040 Descending Los Angeles Center
11:56PM 34.6425 -116.4764 234° Southwest 378 435 24,000 -1,980 Descending Los Angeles Center
11:57PM 34.5836 -116.5756 234° Southwest 363 418 22,100 -1,860 Descending Los Angeles Center
11:58PM 34.5292 -116.6686 235° Southwest 343 395 20,300 -1,740 Descending Los Angeles Center
11:59PM 34.4758 -116.7594 235° Southwest 330 380 18,600 -1,680 Descending Los Angeles Center
12:00AM 34.4242 -116.8450 234° Southwest 317 365 16,900 -1,740 Descending Los Angeles Center
12:01AM 34.3733 -116.9306 234° Southwest 314 361 15,100 -1,740 Descending Los Angeles Center
12:02AM 34.3231 -117.0142 234° Southwest 309 356 13,400 -1,740 Descending Los Angeles Center
12:03AM 34.2747 -117.0947 234° Southwest 298 343 11,700 -1,860 Descending Los Angeles Center
12:04AM 34.2108 -117.1772 227° Southwest 290 334 9,700 -1,620 Descending Los Angeles Center
12:05AM 34.1583 -117.2400 225° Southwest 270 311 8,500 -1,380 Descending Los Angeles Center
12:06AM 34.1167 -117.2833 221° Southwest 238 274 7,400 -1,560 Descending Southern California TRACON
12:07AM 34.1000 -117.3333 248° West 200 230 5,900 -1,560 Descending Southern California TRACON
12:08AM 34.0833 -117.4000 253° West 180 207 4,300 -1,440 Descending Southern California TRACON
12:09AM 34.0667 -117.4500 248° West 164 189 3,000 -960 Descending Southern California TRACON
12:10AM 34.0500 -117.5000 248° West 128 147 2,400 -720 Descending Southern California TRACON
12:11AM 34.0500 -117.5500 270° West 130 150 1,600 -720 Descending Southern California TRACON
12:12AM 34.0667 -117.5833 301° West 191 220 900 -720 Descending Southern California TRACON
12:14AM 34.0500 -117.6000 270° West  Level FlightAware Approximate
12:21AM 34.0560 -117.6012 270° West  Level Estimated
12:22AM 34.0500 -117.6000 270° West  Level FlightAware Approximate
12:23AM 34.0560 -117.6012 270° West  Level Estimated
12:24AM 34.0500 -117.6000 270° West  Level FlightAware Approximate